UNAAUIBB

Guest
Details From UNAA - Abakan
To UIBB - Bratsk
Flight Number -
Tags Generated
Created
Modified
Stats Distance 387 nm / 717 km
Max Altitude 0 ft / 0 m
Waypoints 3
Social Downloads 0
Likes 0
Share VATSIM

Download

Looking for another format? Having issues loading an existing format? Contact us
Advertisement - Login to hide

Notes

Generated

Route

UNAA G UIBB

ID Type Via Altitude Latitude Longitude Leg Dist Tot Dist Heading (true) Name
O UNAA APT - 0 ft / 0 m 53.74374˚ 91.38316˚ - 0 nm - -
G NDB - 0 ft / 0 m 56.38075˚ 101.65777˚ 386 nm 386 nm 62° / 70° BRATSK NDB
O UIBB APT - 0 ft / 0 m 56.37652˚ 101.67514˚ 0 nm 387 nm 114° / 114° -

Altitude Profile

Advertisement - Login to hide

Weather


0- 5 10 15 20 25 30 35+ Temperature / ° C

Clouds and Precipitation
Forecast for 2018-05-24 18:00 UTC. Updated 40 minutes ago

Ground ~20,000 ft ~40,000 ft Winds

UNAA

Details ICAO UNAA (ABA)
Name ABAKAN
Region Russia
Timezone Asia/Krasnoyarsk (UTC+7.0)
Stats Elevation 831 ft / 253 m (AMSL)
Location 53.743435° 91.385782°
Runways 3
Magnetic Variation 3.963° E

METAR

UNAA 241800Z 00000MPS CAVOK 01/M02 Q1021 R20/290055 NOSIG RMK QFE743

Decode

TAF

TAF UNAA 241653Z 2418/2518 21003MPS 3200 -SHRASN BR FEW005 BKN011CB FM250300 17003G10MPS 9999 SCT015CB TEMPO 2503/2518 3500 -SHRA

Decode

Departure Runways

ID Width Length Bearing (true) Bearing (mag) Surface Threshold Offset Overrun Length
02C 263 ft / 80 m 8,117 ft / 2,474 m 24.96° 21.00° Grass 0 ft / 0 m 0 ft / 0 m
02L 92 ft / 28 m 4,243 ft / 1,293 m 24.80° 20.84° Asphalt 0 ft / 0 m 100 ft / 30 m
02R 148 ft / 45 m 10,655 ft / 3,248 m 24.94° 20.98° Asphalt 1,640 ft / 500 m 200 ft / 61 m
20C 263 ft / 80 m 8,117 ft / 2,474 m 204.97° 201.01° Grass 0 ft / 0 m 0 ft / 0 m
20L 148 ft / 45 m 10,655 ft / 3,248 m 204.96° 201.00° Asphalt 820 ft / 250 m 0 ft / 0 m
20R 92 ft / 28 m 4,243 ft / 1,293 m 204.81° 200.85° Asphalt 0 ft / 0 m 100 ft / 30 m

UIBB

Details ICAO UIBB (BTK)
Name BRATSK
Region Russia
Timezone Asia/Irkutsk (UTC+8.0)
Stats Elevation 1,610 ft / 491 m (AMSL)
Location 56.370157° 101.702949°
Runways 2
Magnetic Variation 2.087° W

METAR

UIBB 241800Z AUTO 33004MPS 9999 // NSC 08/M02 Q1010 RMK QFE715/0953

Decode

TAF

TAF UIBB 241700Z 2418/2518 30003MPS 9999 -SHRA BKN016CB

Decode

Destination Runways

ID Width Length Bearing (true) Bearing (mag) Surface Threshold Offset Overrun Length
12 197 ft / 60 m 10,335 ft / 3,150 m 114.88° 116.97° Concrete 0 ft / 0 m 246 ft / 75 m
12L 246 ft / 75 m 6,568 ft / 2,002 m 114.60° 116.69° Grass 0 ft / 0 m 0 ft / 0 m
30 197 ft / 60 m 10,335 ft / 3,150 m 294.92° 297.01° Concrete 0 ft / 0 m 246 ft / 75 m
30R 246 ft / 75 m 6,568 ft / 2,002 m 294.62° 296.71° Grass 0 ft / 0 m 0 ft / 0 m

Approach Navaids

Runway Type Ident Frequency Range Bearing (true) Bearing (mag) Slope Elevation
30 Localiser IBS 110.30 MHz 18 nm / 33 km 294.98° 297.07° - 1,610 ft / 491 m (AMSL)
30 Glidescope IBS 110.30 MHz 10 nm / 19 km 295.00° 297.09° 3.00° 1,610 ft / 491 m (AMSL)